sensor_id;sensor_type;location;lat;lon;timestamp;noise_LAeq;noise_LA_min;noise_LA_max;noise_LA01;noise_LA95
84588;Laerm;74812;47.466;8.992;2023-12-20T00:02:03;35.96;26.91;39.92;;
84588;Laerm;74812;47.466;8.992;2023-12-20T00:04:28;35.96;26.91;39.46;;
84588;Laerm;74812;47.466;8.992;2023-12-20T00:06:54;36.03;26.91;51.84;;
84588;Laerm;74812;47.466;8.992;2023-12-20T00:09:19;35.97;23.90;39.35;;
84588;Laerm;74812;47.466;8.992;2023-12-20T00:11:44;36.18;26.91;56.05;;
84588;Laerm;74812;47.466;8.992;2023-12-20T00:14:11;35.97;26.91;39.46;;
84588;Laerm;74812;47.466;8.992;2023-12-20T00:16:36;36.10;23.90;42.59;;
84588;Laerm;74812;47.466;8.992;2023-12-20T00:19:01;36.05;26.91;39.70;;
84588;Laerm;74812;47.466;8.992;2023-12-20T00:21:27;36.34;26.91;40.80;;
84588;Laerm;74812;47.466;8.992;2023-12-20T00:23:52;36.21;28.67;39.70;;
84588;Laerm;74812;47.466;8.992;2023-12-20T00:26:17;36.43;28.67;52.66;;
84588;Laerm;74812;47.466;8.992;2023-12-20T00:28:43;36.33;28.67;40.23;;
84588;Laerm;74812;47.466;8.992;2023-12-20T00:31:08;36.41;28.67;40.23;;
84588;Laerm;74812;47.466;8.992;2023-12-20T00:33:33;36.43;23.90;56.27;;
84588;Laerm;74812;47.466;8.992;2023-12-20T00:35:59;36.31;23.90;40.62;;
84588;Laerm;74812;47.466;8.992;2023-12-20T00:38:24;36.37;23.90;39.92;;
84588;Laerm;74812;47.466;8.992;2023-12-20T00:40:50;36.38;28.67;40.18;;
84588;Laerm;74812;47.466;8.992;2023-12-20T00:43:15;36.20;23.90;40.33;;
84588;Laerm;74812;47.466;8.992;2023-12-20T00:45:41;36.14;23.90;40.33;;
84588;Laerm;74812;47.466;8.992;2023-12-20T00:48:06;36.08;26.91;51.47;;
84588;Laerm;74812;47.466;8.992;2023-12-20T00:50:32;36.11;26.91;48.46;;
84588;Laerm;74812;47.466;8.992;2023-12-20T00:52:57;36.12;26.91;54.24;;
84588;Laerm;74812;47.466;8.992;2023-12-20T00:55:22;36.70;26.91;41.46;;
84588;Laerm;74812;47.466;8.992;2023-12-20T00:57:48;36.39;28.67;40.98;;
84588;Laerm;74812;47.466;8.992;2023-12-20T01:00:13;35.89;28.67;39.46;;
84588;Laerm;74812;47.466;8.992;2023-12-20T01:02:38;35.84;26.91;39.08;;
84588;Laerm;74812;47.466;8.992;2023-12-20T01:05:04;35.79;26.91;39.34;;
84588;Laerm;74812;47.466;8.992;2023-12-20T01:07:29;36.07;23.90;51.08;;
84588;Laerm;74812;47.466;8.992;2023-12-20T01:09:55;36.14;28.67;39.58;;
84588;Laerm;74812;47.466;8.992;2023-12-20T01:12:20;36.20;23.90;39.58;;
84588;Laerm;74812;47.466;8.992;2023-12-20T01:14:45;36.25;26.91;54.83;;
84588;Laerm;74812;47.466;8.992;2023-12-20T01:17:11;36.20;26.56;39.92;;
84588;Laerm;74812;47.466;8.992;2023-12-20T01:19:37;36.12;28.67;40.03;;
84588;Laerm;74812;47.466;8.992;2023-12-20T01:22:02;36.07;23.90;40.23;;
84588;Laerm;74812;47.466;8.992;2023-12-20T01:24:28;36.09;26.91;39.21;;
84588;Laerm;74812;47.466;8.992;2023-12-20T01:26:54;36.52;26.91;40.62;;
84588;Laerm;74812;47.466;8.992;2023-12-20T01:29:19;36.21;26.91;52.67;;
84588;Laerm;74812;47.466;8.992;2023-12-20T01:31:44;35.97;26.91;39.34;;
84588;Laerm;74812;47.466;8.992;2023-12-20T01:34:10;36.02;28.67;56.31;;
84588;Laerm;74812;47.466;8.992;2023-12-20T01:36:35;35.99;26.91;40.43;;
84588;Laerm;74812;47.466;8.992;2023-12-20T01:39:00;36.01;23.90;39.46;;
84588;Laerm;74812;47.466;8.992;2023-12-20T01:41:25;35.90;28.67;39.92;;
84588;Laerm;74812;47.466;8.992;2023-12-20T01:43:51;36.09;26.91;39.58;;
84588;Laerm;74812;47.466;8.992;2023-12-20T01:46:18;35.97;26.91;39.34;;
84588;Laerm;74812;47.466;8.992;2023-12-20T01:48:44;36.06;26.91;52.25;;
84588;Laerm;74812;47.466;8.992;2023-12-20T01:51:09;35.99;26.91;39.34;;
84588;Laerm;74812;47.466;8.992;2023-12-20T01:53:35;36.22;26.91;56.07;;
84588;Laerm;74812;47.466;8.992;2023-12-20T01:56:01;35.98;26.91;39.46;;
84588;Laerm;74812;47.466;8.992;2023-12-20T01:58:26;35.98;26.91;39.08;;
84588;Laerm;74812;47.466;8.992;2023-12-20T02:00:52;36.02;28.32;39.58;;
84588;Laerm;74812;47.466;8.992;2023-12-20T02:03:18;35.97;26.91;39.81;;
84588;Laerm;74812;47.466;8.992;2023-12-20T02:05:44;36.65;23.90;44.76;;
84588;Laerm;74812;47.466;8.992;2023-12-20T02:08:09;36.49;23.90;52.37;;
84588;Laerm;74812;47.466;8.992;2023-12-20T02:10:35;35.94;5.00;39.58;;
84588;Laerm;74812;47.466;8.992;2023-12-20T02:13:00;36.11;26.91;55.69;;
84588;Laerm;74812;47.466;8.992;2023-12-20T02:15:25;36.03;26.91;39.58;;
84588;Laerm;74812;47.466;8.992;2023-12-20T02:17:51;36.11;23.90;40.53;;
84588;Laerm;74812;47.466;8.992;2023-12-20T02:20:16;36.13;28.32;40.89;;
84588;Laerm;74812;47.466;8.992;2023-12-20T02:22:42;35.89;23.90;38.95;;
84588;Laerm;74812;47.466;8.992;2023-12-20T02:25:07;35.97;26.91;39.46;;
84588;Laerm;74812;47.466;8.992;2023-12-20T02:27:33;36.28;23.90;50.68;;
84588;Laerm;74812;47.466;8.992;2023-12-20T02:29:58;35.92;23.90;39.34;;
84588;Laerm;74812;47.466;8.992;2023-12-20T02:32:23;35.82;26.91;39.21;;
84588;Laerm;74812;47.466;8.992;2023-12-20T02:34:51;36.07;23.90;55.07;;
84588;Laerm;74812;47.466;8.992;2023-12-20T02:37:16;35.86;26.91;39.46;;
84588;Laerm;74812;47.466;8.992;2023-12-20T02:39:42;35.84;23.90;39.70;;
84588;Laerm;74812;47.466;8.992;2023-12-20T02:42:07;36.00;26.91;39.46;;
84588;Laerm;74812;47.466;8.992;2023-12-20T02:44:32;36.05;26.91;40.13;;
84588;Laerm;74812;47.466;8.992;2023-12-20T02:46:58;36.18;26.91;52.79;;
84588;Laerm;74812;47.466;8.992;2023-12-20T02:49:23;36.03;26.91;42.22;;
84588;Laerm;74812;47.466;8.992;2023-12-20T02:51:48;35.97;26.91;40.53;;
84588;Laerm;74812;47.466;8.992;2023-12-20T02:54:13;36.20;23.90;55.86;;
84588;Laerm;74812;47.466;8.992;2023-12-20T02:56:39;35.89;23.90;39.08;;
84588;Laerm;74812;47.466;8.992;2023-12-20T02:59:04;35.89;26.91;39.21;;
84588;Laerm;74812;47.466;8.992;2023-12-20T03:01:33;36.12;23.90;42.22;;
84588;Laerm;74812;47.466;8.992;2023-12-20T03:03:59;36.39;26.91;41.38;;
84588;Laerm;74812;47.466;8.992;2023-12-20T03:06:24;36.15;23.90;50.09;;
84588;Laerm;74812;47.466;8.992;2023-12-20T03:08:50;36.94;28.67;41.61;;
84588;Laerm;74812;47.466;8.992;2023-12-20T03:11:15;36.49;29.92;55.65;;
84588;Laerm;74812;47.466;8.992;2023-12-20T03:13:40;36.40;23.90;39.81;;
84588;Laerm;74812;47.466;8.992;2023-12-20T03:16:09;36.05;28.67;39.46;;
84588;Laerm;74812;47.466;8.992;2023-12-20T03:18:35;36.12;28.67;39.81;;
84588;Laerm;74812;47.466;8.992;2023-12-20T03:21:01;37.13;29.92;40.89;;
84588;Laerm;74812;47.466;8.992;2023-12-20T03:23:26;36.66;26.91;42.76;;
84588;Laerm;74812;47.466;8.992;2023-12-20T03:25:52;37.54;28.32;51.86;;
84588;Laerm;74812;47.466;8.992;2023-12-20T03:28:17;36.60;26.91;40.98;;
84588;Laerm;74812;47.466;8.992;2023-12-20T03:30:43;36.28;26.91;55.95;;
84588;Laerm;74812;47.466;8.992;2023-12-20T03:33:08;36.27;28.67;39.81;;
84588;Laerm;74812;47.466;8.992;2023-12-20T03:35:34;36.19;23.90;40.03;;
84588;Laerm;74812;47.466;8.992;2023-12-20T03:38:00;36.58;28.67;41.14;;
84588;Laerm;74812;47.466;8.992;2023-12-20T03:40:25;36.38;28.67;39.70;;
84588;Laerm;74812;47.466;8.992;2023-12-20T03:42:51;36.17;26.91;40.13;;
84588;Laerm;74812;47.466;8.992;2023-12-20T03:45:16;36.45;26.91;50.53;;
84588;Laerm;74812;47.466;8.992;2023-12-20T03:47:41;36.82;28.67;40.62;;
84588;Laerm;74812;47.466;8.992;2023-12-20T03:50:07;36.51;26.91;55.97;;
84588;Laerm;74812;47.466;8.992;2023-12-20T03:52:32;36.76;28.67;40.80;;
84588;Laerm;74812;47.466;8.992;2023-12-20T03:54:58;36.87;28.67;40.89;;
84588;Laerm;74812;47.466;8.992;2023-12-20T03:57:23;37.17;28.67;42.82;;
84588;Laerm;74812;47.466;8.992;2023-12-20T03:59:48;36.37;28.67;41.53;;
84588;Laerm;74812;47.466;8.992;2023-12-20T04:02:14;36.59;29.92;42.19;;
84588;Laerm;74812;47.466;8.992;2023-12-20T04:04:39;36.87;26.91;51.17;;
84588;Laerm;74812;47.466;8.992;2023-12-20T04:07:04;36.69;28.67;41.14;;
84588;Laerm;74812;47.466;8.992;2023-12-20T04:09:30;36.96;23.90;56.34;;
84588;Laerm;74812;47.466;8.992;2023-12-20T04:11:55;36.58;26.91;39.81;;
84588;Laerm;74812;47.466;8.992;2023-12-20T04:14:21;36.86;28.67;41.22;;
84588;Laerm;74812;47.466;8.992;2023-12-20T04:16:46;36.71;28.67;40.33;;
84588;Laerm;74812;47.466;8.992;2023-12-20T04:19:11;36.81;30.89;40.43;;
84588;Laerm;74812;47.466;8.992;2023-12-20T04:21:37;36.75;29.92;40.23;;
84588;Laerm;74812;47.466;8.992;2023-12-20T04:24:02;37.78;29.92;50.98;;
84588;Laerm;74812;47.466;8.992;2023-12-20T04:26:27;37.72;31.68;40.98;;
84588;Laerm;74812;47.466;8.992;2023-12-20T04:28:52;37.71;29.92;54.79;;
84588;Laerm;74812;47.466;8.992;2023-12-20T04:31:18;38.59;30.89;44.87;;
84588;Laerm;74812;47.466;8.992;2023-12-20T04:33:43;37.81;30.89;42.29;;
84588;Laerm;74812;47.466;8.992;2023-12-20T04:36:08;37.39;31.68;40.43;;
84588;Laerm;74812;47.466;8.992;2023-12-20T04:38:34;37.61;31.68;40.89;;
84588;Laerm;74812;47.466;8.992;2023-12-20T04:41:00;38.29;31.68;52.10;;
84588;Laerm;74812;47.466;8.992;2023-12-20T04:43:25;38.45;32.93;41.61;;
84588;Laerm;74812;47.466;8.992;2023-12-20T04:45:51;37.60;32.35;40.89;;
84588;Laerm;74812;47.466;8.992;2023-12-20T04:48:16;37.90;31.68;56.10;;
84588;Laerm;74812;47.466;8.992;2023-12-20T04:50:41;38.30;32.35;41.61;;
84588;Laerm;74812;47.466;8.992;2023-12-20T04:53:07;38.07;32.93;41.14;;
84588;Laerm;74812;47.466;8.992;2023-12-20T04:55:32;38.10;32.93;42.59;;
84588;Laerm;74812;47.466;8.992;2023-12-20T04:57:58;38.28;33.90;42.98;;
84588;Laerm;74812;47.466;8.992;2023-12-20T05:00:23;38.66;33.90;51.85;;
84588;Laerm;74812;47.466;8.992;2023-12-20T05:02:48;38.77;34.31;43.04;;
84588;Laerm;74812;47.466;8.992;2023-12-20T05:05:14;38.63;34.31;42.03;;
84588;Laerm;74812;47.466;8.992;2023-12-20T05:07:40;39.80;32.35;55.41;;
84588;Laerm;74812;47.466;8.992;2023-12-20T05:10:06;37.72;31.68;41.06;;
84588;Laerm;74812;47.466;8.992;2023-12-20T05:12:33;37.88;31.68;41.22;;
84588;Laerm;74812;47.466;8.992;2023-12-20T05:14:58;37.97;29.92;41.46;;
84588;Laerm;74812;47.466;8.992;2023-12-20T05:17:24;38.11;31.68;41.89;;
84588;Laerm;74812;47.466;8.992;2023-12-20T05:19:49;37.58;29.92;52.13;;
84588;Laerm;74812;47.466;8.992;2023-12-20T05:22:14;37.88;32.35;41.38;;
84588;Laerm;74812;47.466;8.992;2023-12-20T05:24:39;37.98;31.68;44.35;;
84588;Laerm;74812;47.466;8.992;2023-12-20T05:27:05;38.59;32.58;54.19;;
84588;Laerm;74812;47.466;8.992;2023-12-20T05:29:30;38.90;32.93;42.29;;
84588;Laerm;74812;47.466;8.992;2023-12-20T05:31:55;38.58;33.44;41.75;;
84588;Laerm;74812;47.466;8.992;2023-12-20T05:34:21;38.06;32.35;41.22;;
84588;Laerm;74812;47.466;8.992;2023-12-20T05:36:46;38.80;33.44;41.82;;
84588;Laerm;74812;47.466;8.992;2023-12-20T05:39:12;38.96;34.31;52.68;;
84588;Laerm;74812;47.466;8.992;2023-12-20T05:41:37;38.27;32.93;41.30;;
84588;Laerm;74812;47.466;8.992;2023-12-20T05:44:02;38.50;30.89;56.01;;
84588;Laerm;74812;47.466;8.992;2023-12-20T05:46:28;38.70;33.44;41.68;;
84588;Laerm;74812;47.466;8.992;2023-12-20T05:48:53;38.64;32.35;44.03;;
84588;Laerm;74812;47.466;8.992;2023-12-20T05:51:18;38.42;31.68;42.13;;
84588;Laerm;74812;47.466;8.992;2023-12-20T05:53:44;38.22;30.89;41.89;;
84588;Laerm;74812;47.466;8.992;2023-12-20T05:56:09;38.21;29.92;41.68;;
84588;Laerm;74812;47.466;8.992;2023-12-20T05:58:35;37.87;28.67;52.45;;
84588;Laerm;74812;47.466;8.992;2023-12-20T06:01:00;38.28;28.67;42.98;;
84588;Laerm;74812;47.466;8.992;2023-12-20T06:03:25;38.57;32.35;55.95;;
84588;Laerm;74812;47.466;8.992;2023-12-20T06:05:50;38.64;32.35;42.03;;
84588;Laerm;74812;47.466;8.992;2023-12-20T06:08:16;39.23;33.90;41.82;;
84588;Laerm;74812;47.466;8.992;2023-12-20T06:10:41;38.16;32.93;41.06;;
84588;Laerm;74812;47.466;8.992;2023-12-20T06:13:06;38.63;31.68;45.63;;
84588;Laerm;74812;47.466;8.992;2023-12-20T06:15:32;38.97;32.35;52.39;;
84588;Laerm;74812;47.466;8.992;2023-12-20T06:17:57;39.49;33.90;43.49;;
84588;Laerm;74812;47.466;8.992;2023-12-20T06:20:23;39.21;32.35;58.89;;
84588;Laerm;74812;47.466;8.992;2023-12-20T06:22:48;38.57;32.35;56.08;;
84588;Laerm;74812;47.466;8.992;2023-12-20T06:25:13;38.93;31.68;56.97;;
84588;Laerm;74812;47.466;8.992;2023-12-20T06:27:39;39.55;32.93;58.13;;
84588;Laerm;74812;47.466;8.992;2023-12-20T06:30:06;38.72;31.68;49.30;;
84588;Laerm;74812;47.466;8.992;2023-12-20T06:32:32;38.26;26.91;45.39;;
84588;Laerm;74812;47.466;8.992;2023-12-20T06:34:57;39.75;32.35;52.51;;
84588;Laerm;74812;47.466;8.992;2023-12-20T06:37:22;38.18;29.92;50.99;;
84588;Laerm;74812;47.466;8.992;2023-12-20T06:39:48;38.20;31.68;50.07;;
84588;Laerm;74812;47.466;8.992;2023-12-20T06:42:13;37.76;30.89;54.35;;
84588;Laerm;74812;47.466;8.992;2023-12-20T06:44:38;38.47;31.33;48.23;;
84588;Laerm;74812;47.466;8.992;2023-12-20T06:47:04;38.97;32.93;44.69;;
84588;Laerm;74812;47.466;8.992;2023-12-20T06:49:30;38.33;31.68;51.31;;
84588;Laerm;74812;47.466;8.992;2023-12-20T06:51:55;38.41;32.35;51.33;;
84588;Laerm;74812;47.466;8.992;2023-12-20T06:54:21;37.81;29.92;50.65;;
84588;Laerm;74812;47.466;8.992;2023-12-20T06:56:46;38.48;31.68;45.20;;
84588;Laerm;74812;47.466;8.992;2023-12-20T06:59:11;38.82;32.35;56.16;;
84588;Laerm;74812;47.466;8.992;2023-12-20T07:01:37;38.56;30.89;50.92;;
84588;Laerm;74812;47.466;8.992;2023-12-20T07:04:03;38.23;31.68;51.32;;
84588;Laerm;74812;47.466;8.992;2023-12-20T07:06:28;38.60;31.68;50.98;;
84588;Laerm;74812;47.466;8.992;2023-12-20T07:08:53;38.30;29.92;50.92;;
84588;Laerm;74812;47.466;8.992;2023-12-20T07:11:19;37.76;28.67;51.83;;
84588;Laerm;74812;47.466;8.992;2023-12-20T07:13:44;38.12;30.89;42.09;;
84588;Laerm;74812;47.466;8.992;2023-12-20T07:16:09;37.86;28.67;51.29;;
84588;Laerm;74812;47.466;8.992;2023-12-20T07:18:35;37.93;31.68;54.20;;
84588;Laerm;74812;47.466;8.992;2023-12-20T07:21:00;37.64;30.89;41.14;;
84588;Laerm;74812;47.466;8.992;2023-12-20T07:23:25;37.76;29.92;41.89;;
84588;Laerm;74812;47.466;8.992;2023-12-20T07:25:51;37.89;28.67;51.03;;
84588;Laerm;74812;47.466;8.992;2023-12-20T07:28:17;38.24;30.89;42.41;;
84588;Laerm;74812;47.466;8.992;2023-12-20T07:30:42;38.28;32.35;50.46;;
84588;Laerm;74812;47.466;8.992;2023-12-20T07:33:08;37.83;32.35;41.46;;
84588;Laerm;74812;47.466;8.992;2023-12-20T07:35:34;38.52;30.89;42.30;;
84588;Laerm;74812;47.466;8.992;2023-12-20T07:38:00;38.97;32.93;54.68;;
84588;Laerm;74812;47.466;8.992;2023-12-20T07:40:25;39.23;33.44;42.98;;
84588;Laerm;74812;47.466;8.992;2023-12-20T07:42:51;38.70;32.35;43.19;;
84588;Laerm;74812;47.466;8.992;2023-12-20T07:45:16;38.23;29.92;42.53;;
84588;Laerm;74812;47.466;8.992;2023-12-20T07:47:41;38.08;30.89;41.22;;
84588;Laerm;74812;47.466;8.992;2023-12-20T07:50:07;38.08;29.92;52.73;;
84588;Laerm;74812;47.466;8.992;2023-12-20T07:52:32;38.02;28.67;42.47;;
84588;Laerm;74812;47.466;8.992;2023-12-20T07:54:57;37.96;30.89;43.24;;
84588;Laerm;74812;47.466;8.992;2023-12-20T07:57:23;38.77;31.68;54.61;;
84588;Laerm;74812;47.466;8.992;2023-12-20T07:59:48;39.67;29.92;56.63;;
84588;Laerm;74812;47.466;8.992;2023-12-20T08:02:14;38.25;29.92;51.44;;
84588;Laerm;74812;47.466;8.992;2023-12-20T08:04:39;37.69;26.91;51.40;;
84588;Laerm;74812;47.466;8.992;2023-12-20T08:07:06;38.01;28.67;48.71;;
84588;Laerm;74812;47.466;8.992;2023-12-20T08:09:31;38.37;29.92;52.28;;
84588;Laerm;74812;47.466;8.992;2023-12-20T08:11:57;38.46;28.67;57.47;;
84588;Laerm;74812;47.466;8.992;2023-12-20T08:14:24;37.98;28.67;51.15;;
84588;Laerm;74812;47.466;8.992;2023-12-20T08:16:50;38.86;32.35;56.53;;
84588;Laerm;74812;47.466;8.992;2023-12-20T08:19:15;39.99;32.35;56.25;;
84588;Laerm;74812;47.466;8.992;2023-12-20T08:21:40;38.31;32.00;52.35;;
84588;Laerm;74812;47.466;8.992;2023-12-20T08:24:06;40.05;32.93;57.03;;
84588;Laerm;74812;47.466;8.992;2023-12-20T08:26:32;38.34;31.33;45.04;;
84588;Laerm;74812;47.466;8.992;2023-12-20T08:28:57;38.59;31.68;52.83;;
84588;Laerm;74812;47.466;8.992;2023-12-20T08:31:23;38.57;30.89;44.03;;
84588;Laerm;74812;47.466;8.992;2023-12-20T08:33:48;38.69;32.35;55.87;;
84588;Laerm;74812;47.466;8.992;2023-12-20T08:36:14;38.87;31.68;46.89;;
84588;Laerm;74812;47.466;8.992;2023-12-20T08:38:40;38.71;32.93;42.53;;
84588;Laerm;74812;47.466;8.992;2023-12-20T08:41:06;39.08;33.44;55.30;;
84588;Laerm;74812;47.466;8.992;2023-12-20T08:43:31;39.22;32.35;51.50;;
84588;Laerm;74812;47.466;8.992;2023-12-20T08:45:57;38.63;32.35;52.62;;
84588;Laerm;74812;47.466;8.992;2023-12-20T08:48:22;38.75;29.92;50.31;;
84588;Laerm;74812;47.466;8.992;2023-12-20T08:50:48;39.32;31.68;50.32;;
84588;Laerm;74812;47.466;8.992;2023-12-20T08:53:15;39.23;33.44;54.69;;
84588;Laerm;74812;47.466;8.992;2023-12-20T08:55:41;39.76;33.44;50.13;;
84588;Laerm;74812;47.466;8.992;2023-12-20T08:58:07;39.47;32.35;47.91;;
84588;Laerm;74812;47.466;8.992;2023-12-20T09:00:33;39.31;31.68;51.82;;
84588;Laerm;74812;47.466;8.992;2023-12-20T09:02:58;43.82;33.44;66.33;;
84588;Laerm;74812;47.466;8.992;2023-12-20T09:05:24;40.66;32.93;61.25;;
84588;Laerm;74812;47.466;8.992;2023-12-20T09:07:50;39.56;33.90;59.38;;
84588;Laerm;74812;47.466;8.992;2023-12-20T09:10:15;39.60;33.90;60.75;;
84588;Laerm;74812;47.466;8.992;2023-12-20T09:12:41;39.83;33.44;63.61;;
84588;Laerm;74812;47.466;8.992;2023-12-20T09:15:07;39.20;33.90;46.66;;
84588;Laerm;74812;47.466;8.992;2023-12-20T09:17:33;39.11;33.44;44.19;;
84588;Laerm;74812;47.466;8.992;2023-12-20T09:19:58;38.48;33.44;41.68;;
84588;Laerm;74812;47.466;8.992;2023-12-20T09:22:25;38.73;33.90;42.95;;
84588;Laerm;74812;47.466;8.992;2023-12-20T09:24:50;39.05;32.93;52.74;;
84588;Laerm;74812;47.466;8.992;2023-12-20T09:27:16;40.87;32.93;59.34;;
84588;Laerm;74812;47.466;8.992;2023-12-20T09:29:41;39.47;33.44;51.18;;
84588;Laerm;74812;47.466;8.992;2023-12-20T09:32:07;43.65;33.44;63.49;;
84588;Laerm;74812;47.466;8.992;2023-12-20T09:34:33;42.39;32.93;64.99;;
84588;Laerm;74812;47.466;8.992;2023-12-20T09:36:58;40.42;33.90;60.24;;
84588;Laerm;74812;47.466;8.992;2023-12-20T09:39:24;42.35;32.35;71.19;;
84588;Laerm;74812;47.466;8.992;2023-12-20T09:41:51;38.00;32.35;49.49;;
84588;Laerm;74812;47.466;8.992;2023-12-20T09:44:22;41.26;33.90;66.77;;
84588;Laerm;74812;47.466;8.992;2023-12-20T09:46:49;39.62;32.93;54.29;;
84588;Laerm;74812;47.466;8.992;2023-12-20T09:49:15;61.04;33.44;90.13;;
84588;Laerm;74812;47.466;8.992;2023-12-20T09:51:42;39.39;33.55;56.59;;
84588;Laerm;74812;47.466;8.992;2023-12-20T09:54:08;38.85;32.93;53.60;;
84588;Laerm;74812;47.466;8.992;2023-12-20T09:56:33;42.15;32.93;69.74;;
84588;Laerm;74812;47.466;8.992;2023-12-20T09:58:59;50.09;32.35;78.91;;
84588;Laerm;74812;47.466;8.992;2023-12-20T10:01:24;44.28;31.68;69.31;;
84588;Laerm;74812;47.466;8.992;2023-12-20T10:03:50;40.56;33.44;54.39;;
84588;Laerm;74812;47.466;8.992;2023-12-20T10:06:16;42.60;30.89;54.79;;
84588;Laerm;74812;47.466;8.992;2023-12-20T10:08:41;65.65;30.89;100.79;;
84588;Laerm;74812;47.466;8.992;2023-12-20T10:11:07;42.25;32.35;57.57;;
84588;Laerm;74812;47.466;8.992;2023-12-20T10:13:32;42.28;32.93;49.38;;
84588;Laerm;74812;47.466;8.992;2023-12-20T10:15:57;41.63;35.66;52.08;;
84588;Laerm;74812;47.466;8.992;2023-12-20T10:18:23;38.34;32.35;46.30;;
84588;Laerm;74812;47.466;8.992;2023-12-20T10:20:48;38.22;31.68;53.16;;
84588;Laerm;74812;47.466;8.992;2023-12-20T10:23:14;38.12;31.68;51.90;;
84588;Laerm;74812;47.466;8.992;2023-12-20T10:25:40;39.38;32.35;52.30;;
84588;Laerm;74812;47.466;8.992;2023-12-20T10:30:34;39.01;33.44;57.05;;
84588;Laerm;74812;47.466;8.992;2023-12-20T10:33:00;42.53;28.67;67.15;;
84588;Laerm;74812;47.466;8.992;2023-12-20T10:35:26;38.17;30.54;51.81;;
84588;Laerm;74812;47.466;8.992;2023-12-20T10:37:52;40.41;32.93;56.73;;
84588;Laerm;74812;47.466;8.992;2023-12-20T10:40:20;38.27;29.92;42.22;;
84588;Laerm;74812;47.466;8.992;2023-12-20T10:42:46;38.35;30.89;53.07;;
84588;Laerm;74812;47.466;8.992;2023-12-20T10:45:12;38.29;30.89;43.90;;
84588;Laerm;74812;47.466;8.992;2023-12-20T10:47:37;38.06;29.92;44.35;;
84588;Laerm;74812;47.466;8.992;2023-12-20T10:50:05;38.34;30.89;55.54;;
84588;Laerm;74812;47.466;8.992;2023-12-20T10:52:31;37.92;30.89;41.68;;
84588;Laerm;74812;47.466;8.992;2023-12-20T10:54:57;37.85;29.92;52.19;;
84588;Laerm;74812;47.466;8.992;2023-12-20T10:57:23;38.73;31.68;43.44;;
84588;Laerm;74812;47.466;8.992;2023-12-20T10:59:51;38.64;32.35;42.71;;
84588;Laerm;74812;47.466;8.992;2023-12-20T11:02:18;38.36;32.35;52.09;;
84588;Laerm;74812;47.466;8.992;2023-12-20T11:04:49;38.13;26.91;51.50;;
84588;Laerm;74812;47.466;8.992;2023-12-20T11:07:27;38.87;32.35;47.50;;
84588;Laerm;74812;47.466;8.992;2023-12-20T11:10:09;38.61;31.68;57.59;;
84588;Laerm;74812;47.466;8.992;2023-12-20T11:12:41;38.73;29.92;53.52;;
84588;Laerm;74812;47.466;8.992;2023-12-20T11:15:10;37.79;28.67;43.00;;
84588;Laerm;74812;47.466;8.992;2023-12-20T11:17:36;38.80;30.89;47.72;;
84588;Laerm;74812;47.466;8.992;2023-12-20T11:20:04;50.71;33.44;72.73;;
84588;Laerm;74812;47.466;8.992;2023-12-20T11:22:30;52.76;34.31;71.64;;
84588;Laerm;74812;47.466;8.992;2023-12-20T11:25:14;61.12;33.90;82.89;;
84588;Laerm;74812;47.466;8.992;2023-12-20T11:27:43;52.64;32.58;84.35;;
84588;Laerm;74812;47.466;8.992;2023-12-20T11:30:08;53.79;32.93;82.95;;
84588;Laerm;74812;47.466;8.992;2023-12-20T11:32:35;38.47;32.35;52.77;;
84588;Laerm;74812;47.466;8.992;2023-12-20T11:35:16;39.58;33.44;52.08;;
84588;Laerm;74812;47.466;8.992;2023-12-20T11:37:42;38.90;32.93;54.26;;
84588;Laerm;74812;47.466;8.992;2023-12-20T11:40:13;39.26;33.90;52.44;;
84588;Laerm;74812;47.466;8.992;2023-12-20T11:42:40;42.26;31.68;71.65;;
84588;Laerm;74812;47.466;8.992;2023-12-20T11:45:08;45.87;34.31;74.76;;
84588;Laerm;74812;47.466;8.992;2023-12-20T11:47:34;38.94;32.35;52.92;;
84588;Laerm;74812;47.466;8.992;2023-12-20T11:50:00;38.64;30.89;54.55;;
84588;Laerm;74812;47.466;8.992;2023-12-20T11:52:28;39.04;32.93;52.72;;
84588;Laerm;74812;47.466;8.992;2023-12-20T11:54:54;38.46;28.67;44.73;;
84588;Laerm;74812;47.466;8.992;2023-12-20T11:57:19;38.58;31.68;49.88;;
84588;Laerm;74812;47.466;8.992;2023-12-20T11:59:44;39.79;33.90;56.62;;
84588;Laerm;74812;47.466;8.992;2023-12-20T12:02:11;38.32;29.92;43.58;;
84588;Laerm;74812;47.466;8.992;2023-12-20T12:04:36;39.36;33.90;53.03;;
84588;Laerm;74812;47.466;8.992;2023-12-20T12:07:02;39.30;31.68;43.63;;
84588;Laerm;74812;47.466;8.992;2023-12-20T12:09:28;38.28;31.68;55.49;;
84588;Laerm;74812;47.466;8.992;2023-12-20T12:11:53;40.05;31.68;54.66;;
84588;Laerm;74812;47.466;8.992;2023-12-20T12:14:19;40.20;33.90;53.32;;
84588;Laerm;74812;47.466;8.992;2023-12-20T12:16:45;40.36;32.35;56.27;;
84588;Laerm;74812;47.466;8.992;2023-12-20T12:19:23;44.83;33.90;75.07;;
84588;Laerm;74812;47.466;8.992;2023-12-20T12:22:07;39.93;32.35;59.82;;
84588;Laerm;74812;47.466;8.992;2023-12-20T12:24:45;41.37;33.44;58.85;;
84588;Laerm;74812;47.466;8.992;2023-12-20T12:27:12;40.04;33.44;51.37;;
84588;Laerm;74812;47.466;8.992;2023-12-20T12:29:37;39.35;32.35;55.48;;
84588;Laerm;74812;47.466;8.992;2023-12-20T12:32:06;39.24;31.68;49.52;;
84588;Laerm;74812;47.466;8.992;2023-12-20T12:34:32;39.67;33.44;43.72;;
84588;Laerm;74812;47.466;8.992;2023-12-20T12:36:57;39.34;32.35;52.94;;
84588;Laerm;74812;47.466;8.992;2023-12-20T12:39:23;38.51;32.93;49.66;;
84588;Laerm;74812;47.466;8.992;2023-12-20T12:41:49;39.00;32.35;54.88;;
84588;Laerm;74812;47.466;8.992;2023-12-20T12:44:14;38.30;31.68;52.85;;
84588;Laerm;74812;47.466;8.992;2023-12-20T12:46:39;39.11;26.91;53.75;;
84588;Laerm;74812;47.466;8.992;2023-12-20T12:49:05;42.44;32.93;63.98;;
84588;Laerm;74812;47.466;8.992;2023-12-20T12:51:30;41.55;34.31;56.99;;
84588;Laerm;74812;47.466;8.992;2023-12-20T12:53:56;43.42;33.44;68.99;;
84588;Laerm;74812;47.466;8.992;2023-12-20T12:56:22;51.73;33.90;77.31;;
84588;Laerm;74812;47.466;8.992;2023-12-20T12:58:48;51.13;35.36;74.62;;
84588;Laerm;74812;47.466;8.992;2023-12-20T13:01:13;39.38;32.35;52.24;;
84588;Laerm;74812;47.466;8.992;2023-12-20T13:03:39;50.45;33.44;84.48;;
84588;Laerm;74812;47.466;8.992;2023-12-20T13:06:04;45.86;34.31;64.61;;
84588;Laerm;74812;47.466;8.992;2023-12-20T13:08:31;46.14;35.66;64.16;;
84588;Laerm;74812;47.466;8.992;2023-12-20T13:10:56;45.97;34.69;61.28;;
84588;Laerm;74812;47.466;8.992;2023-12-20T13:13:25;45.09;37.32;59.34;;
84588;Laerm;74812;47.466;8.992;2023-12-20T13:15:50;44.11;34.31;54.55;;
84588;Laerm;74812;47.466;8.992;2023-12-20T13:18:19;44.35;36.45;59.82;;
84588;Laerm;74812;47.466;8.992;2023-12-20T13:20:45;43.22;36.69;58.04;;
84588;Laerm;74812;47.466;8.992;2023-12-20T13:23:11;45.87;34.69;56.99;;
84588;Laerm;74812;47.466;8.992;2023-12-20T13:25:36;45.77;35.66;61.73;;
84588;Laerm;74812;47.466;8.992;2023-12-20T13:28:01;45.76;34.69;62.64;;
84588;Laerm;74812;47.466;8.992;2023-12-20T13:30:28;45.25;35.36;58.42;;
84588;Laerm;74812;47.466;8.992;2023-12-20T13:32:54;43.55;32.35;61.38;;
84588;Laerm;74812;47.466;8.992;2023-12-20T13:35:19;44.52;34.69;62.97;;
84588;Laerm;74812;47.466;8.992;2023-12-20T13:37:45;46.06;35.66;63.15;;
84588;Laerm;74812;47.466;8.992;2023-12-20T13:40:11;43.44;35.04;58.45;;